createdAt,value
2022-09-07T00:02:35.556Z,1.77
2022-09-07T00:05:45.449Z,1.52
2022-09-07T00:08:47.848Z,1.48
2022-09-07T00:11:49.689Z,1.70
2022-09-07T00:14:51.662Z,1.40
2022-09-07T00:21:07.060Z,2.20
2022-09-07T00:24:08.986Z,1.98
2022-09-07T00:27:11.034Z,2.08
2022-09-07T00:30:13.048Z,1.60
2022-09-07T00:33:15.239Z,2.10
2022-09-07T00:36:18.455Z,2.13
2022-09-07T00:39:20.513Z,2.03
2022-09-07T00:42:23.062Z,1.77
2022-09-07T00:45:25.198Z,2.10
2022-09-07T00:48:34.843Z,1.88
2022-09-07T00:52:00.325Z,1.98
2022-09-07T00:55:06.519Z,2.10
2022-09-07T01:01:17.064Z,1.90
2022-09-07T01:04:20.239Z,2.28
2022-09-07T01:07:24.020Z,2.50
2022-09-07T01:10:28.562Z,1.88
2022-09-07T01:13:31.089Z,1.95
2022-09-07T01:17:11.368Z,2.53
2022-09-07T01:20:30.214Z,2.80
2022-09-07T01:23:54.225Z,2.50
2022-09-07T01:27:08.107Z,2.55
2022-09-07T01:30:13.005Z,1.80
2022-09-07T01:33:51.440Z,1.60
2022-09-07T01:37:03.915Z,1.50
2022-09-07T01:40:30.696Z,1.40
2022-09-07T01:43:58.991Z,1.70
2022-09-07T01:47:08.316Z,1.45
2022-09-07T01:50:41.691Z,1.40
2022-09-07T01:53:50.253Z,1.58
2022-09-07T01:56:57.761Z,1.50
2022-09-07T02:00:07.334Z,1.40
2022-09-07T02:03:47.741Z,1.20
2022-09-07T02:07:22.800Z,1.50
2022-09-07T02:10:47.861Z,1.73
2022-09-07T02:14:05.230Z,1.60
2022-09-07T02:17:21.121Z,1.75
2022-09-07T02:20:28.736Z,1.40
2022-09-07T02:23:36.623Z,1.50
2022-09-07T02:29:42.673Z,1.50
2022-09-07T02:32:44.960Z,1.33
2022-09-07T02:35:47.166Z,1.65
2022-09-07T02:38:49.156Z,1.92
2022-09-07T02:44:53.522Z,1.70
2022-09-07T02:48:07.826Z,1.85
2022-09-07T02:51:22.717Z,1.65
2022-09-07T02:54:39.748Z,1.83
2022-09-07T02:58:07.000Z,1.50
2022-09-07T03:01:16.286Z,1.90
2022-09-07T03:04:41.397Z,2.10
2022-09-07T03:07:55.326Z,1.40
2022-09-07T03:10:58.481Z,1.65
2022-09-07T03:14:16.954Z,1.80
2022-09-07T03:17:19.174Z,1.75
2022-09-07T03:20:21.701Z,1.85
2022-09-07T03:23:23.989Z,2.13
2022-09-07T03:26:25.984Z,2.08
2022-09-07T03:32:35.437Z,1.90
2022-09-07T03:35:39.997Z,1.92
2022-09-07T03:38:43.323Z,1.70
2022-09-07T03:41:46.123Z,2.33
2022-09-07T03:47:50.489Z,2.35
2022-09-07T03:51:14.265Z,2.35
2022-09-07T03:54:16.216Z,2.00
2022-09-07T04:00:20.004Z,2.15
2022-09-07T04:03:22.146Z,2.20
2022-09-07T04:06:24.025Z,2.08
2022-09-07T04:09:26.144Z,2.28
2022-09-07T04:12:28.270Z,2.28
2022-09-07T04:15:30.277Z,1.92
2022-09-07T04:21:34.745Z,2.00
2022-09-07T04:24:36.880Z,2.03
2022-09-07T04:27:38.835Z,1.90
2022-09-07T04:30:40.881Z,2.20
2022-09-07T04:36:45.421Z,1.85
2022-09-07T04:39:47.441Z,2.40
2022-09-07T04:42:49.372Z,2.10
2022-09-07T04:45:51.245Z,2.53
2022-09-07T04:48:55.582Z,2.40
2022-09-07T04:51:59.769Z,2.20
2022-09-07T04:55:01.684Z,2.22
2022-09-07T04:58:03.733Z,2.20
2022-09-07T05:04:08.381Z,2.00
2022-09-07T05:07:10.362Z,1.80
2022-09-07T05:13:14.180Z,2.03
2022-09-07T05:16:21.384Z,2.33
2022-09-07T05:19:24.374Z,2.45
2022-09-07T05:22:26.538Z,2.20
2022-09-07T05:25:29.047Z,1.80
2022-09-07T05:28:31.211Z,2.42
2022-09-07T05:31:33.508Z,2.10
2022-09-07T05:34:35.389Z,2.72
2022-09-07T05:37:37.249Z,1.90
2022-09-07T05:40:40.823Z,2.40
2022-09-07T05:47:05.919Z,2.10
2022-09-07T05:50:08.739Z,2.15
2022-09-07T05:53:10.777Z,2.47
2022-09-07T05:59:14.910Z,2.30
2022-09-07T06:05:21.421Z,2.22
2022-09-07T06:08:23.410Z,2.15
2022-09-07T06:14:27.767Z,1.95
2022-09-07T06:20:31.741Z,1.90
2022-09-07T06:23:34.767Z,1.75
2022-09-07T06:26:36.676Z,1.90
2022-09-07T06:36:06.195Z,1.80
2022-09-07T06:39:09.156Z,1.90
2022-09-07T06:42:11.101Z,1.70
2022-09-07T06:45:18.545Z,1.88
2022-09-07T06:48:21.507Z,1.65
2022-09-07T06:51:24.486Z,1.58
2022-09-07T06:57:52.452Z,1.15
2022-09-07T07:00:55.840Z,1.73
2022-09-07T07:03:57.867Z,1.58
2022-09-07T07:06:59.852Z,1.63
2022-09-07T07:10:01.778Z,1.55
2022-09-07T07:13:03.800Z,2.00
2022-09-07T07:16:07.983Z,1.80
2022-09-07T07:19:10.402Z,2.00
2022-09-07T07:22:35.962Z,1.58
2022-09-07T07:25:35.522Z,1.73
2022-09-07T07:31:59.667Z,1.42
2022-09-07T07:35:01.514Z,1.42
2022-09-07T07:48:12.775Z,1.65
2022-09-07T07:51:14.999Z,1.60
2022-09-07T07:54:16.950Z,1.33
2022-09-07T07:57:18.816Z,1.20
2022-09-07T08:00:37.489Z,1.58
2022-09-07T08:03:44.313Z,1.35
2022-09-07T08:06:46.224Z,1.50
2022-09-07T08:09:49.663Z,1.52
2022-09-07T08:12:53.310Z,1.60
2022-09-07T08:15:58.304Z,1.67
2022-09-07T08:19:00.469Z,1.40
2022-09-07T08:22:02.333Z,1.60
2022-09-07T08:25:04.510Z,1.70
2022-09-07T08:28:06.744Z,1.50
2022-09-07T08:31:12.323Z,1.40
2022-09-07T08:34:14.694Z,1.58
2022-09-07T08:37:16.642Z,1.50
2022-09-07T08:40:19.230Z,1.75
2022-09-07T08:43:42.413Z,1.55
2022-09-07T08:47:08.312Z,1.50
2022-09-07T08:50:25.708Z,1.40
2022-09-07T08:53:29.507Z,1.60
2022-09-07T08:56:38.453Z,1.90
2022-09-07T08:59:42.126Z,1.60
2022-09-07T09:02:45.623Z,1.92
2022-09-07T09:06:04.756Z,1.75
2022-09-07T09:09:24.739Z,1.52
2022-09-07T09:12:51.517Z,1.60
2022-09-07T09:16:11.000Z,1.52
2022-09-07T09:19:34.824Z,1.23
2022-09-07T09:22:36.807Z,1.60
2022-09-07T09:25:42.662Z,1.85
2022-09-07T09:28:45.053Z,1.92
2022-09-07T09:31:47.325Z,1.73
2022-09-07T09:35:24.354Z,1.58
2022-09-07T09:38:34.333Z,2.15
2022-09-07T09:41:37.377Z,1.50
2022-09-07T09:44:39.779Z,1.70
2022-09-07T09:47:42.121Z,1.40
2022-09-07T09:54:27.165Z,1.63
2022-09-07T10:01:31.464Z,1.40
2022-09-07T10:04:35.542Z,1.45
2022-09-07T10:07:37.406Z,1.90
2022-09-07T10:10:52.814Z,1.70
2022-09-07T10:13:57.922Z,1.60
2022-09-07T10:17:02.071Z,1.33
2022-09-07T10:20:13.042Z,1.52
2022-09-07T10:23:23.752Z,1.95
2022-09-07T10:26:34.909Z,1.50
2022-09-07T10:29:36.920Z,1.35
2022-09-07T10:32:59.012Z,1.58
2022-09-07T10:36:16.179Z,1.70
2022-09-07T10:39:23.703Z,1.80
2022-09-07T10:42:29.843Z,1.40
2022-09-07T10:45:47.107Z,1.85
2022-09-07T10:49:28.353Z,2.03
2022-09-07T11:03:26.311Z,2.03
2022-09-07T11:06:50.715Z,2.15
2022-09-07T11:10:08.433Z,1.60
2022-09-07T11:13:15.669Z,1.92
2022-09-07T11:19:58.448Z,1.63
2022-09-07T11:23:15.933Z,1.67
2022-09-07T11:26:41.479Z,1.50
2022-09-07T11:29:52.663Z,1.40
2022-09-07T11:33:06.211Z,1.50
2022-09-07T11:36:15.537Z,1.90
2022-09-07T11:39:37.198Z,1.60
2022-09-07T11:43:03.790Z,1.92
2022-09-07T11:46:12.965Z,1.27
2022-09-07T11:49:22.655Z,1.80
2022-09-07T11:52:32.079Z,1.70
2022-09-07T11:55:39.287Z,1.70
2022-09-07T11:58:50.078Z,1.65
2022-09-07T12:02:10.591Z,1.83
2022-09-07T12:05:48.761Z,1.50
2022-09-07T12:08:59.566Z,1.25
2022-09-07T12:12:25.367Z,1.50
2022-09-07T12:16:06.090Z,1.50
2022-09-07T12:19:19.259Z,1.60
2022-09-07T12:22:22.288Z,1.15
2022-09-07T12:25:24.751Z,1.88
2022-09-07T12:28:26.586Z,1.35
2022-09-07T12:31:57.856Z,1.20
2022-09-07T12:35:01.820Z,1.30
2022-09-07T12:38:24.798Z,1.02
2022-09-07T12:41:44.604Z,1.17
2022-09-07T12:44:48.328Z,1.20
2022-09-07T12:47:58.268Z,1.35
2022-09-07T12:55:28.303Z,1.40
2022-09-07T12:58:49.488Z,1.27
2022-09-07T13:02:29.397Z,1.20
2022-09-07T13:05:46.414Z,1.10
2022-09-07T13:09:15.565Z,1.30
2022-09-07T13:12:59.615Z,1.50
2022-09-07T13:16:01.448Z,1.10
2022-09-07T13:19:05.982Z,1.45
2022-09-07T13:22:30.592Z,1.10
2022-09-07T13:25:32.425Z,1.30
2022-09-07T13:28:50.456Z,1.23
2022-09-07T13:32:21.937Z,1.30
2022-09-07T13:38:27.844Z,1.27
2022-09-07T13:41:41.090Z,1.40
2022-09-07T13:44:50.880Z,1.60
2022-09-07T13:48:04.026Z,1.35
2022-09-07T13:51:13.321Z,1.23
2022-09-07T13:54:44.341Z,1.30
2022-09-07T13:58:21.194Z,1.23
2022-09-07T14:01:25.948Z,1.58
2022-09-07T14:04:34.577Z,1.05
2022-09-07T14:07:36.459Z,1.30
2022-09-07T14:10:47.860Z,1.30
2022-09-07T14:14:22.879Z,1.23
2022-09-07T14:17:24.849Z,1.38
2022-09-07T14:20:27.983Z,1.70
2022-09-07T14:23:32.319Z,1.23
2022-09-07T14:26:38.058Z,1.17
2022-09-07T14:29:41.065Z,1.20
2022-09-07T14:32:44.167Z,1.55
2022-09-07T14:35:46.808Z,1.50
2022-09-07T14:39:05.858Z,1.08
2022-09-07T14:42:11.052Z,1.20
2022-09-07T14:45:39.002Z,1.10
2022-09-07T14:48:43.172Z,1.25
2022-09-07T14:51:48.165Z,1.10
2022-09-07T14:54:53.663Z,1.20
2022-09-07T14:58:13.645Z,1.23
2022-09-07T15:04:41.925Z,1.27
2022-09-07T15:07:54.291Z,1.30
2022-09-07T15:14:32.627Z,1.30
2022-09-07T15:17:49.806Z,1.20
2022-09-07T15:20:54.229Z,1.38
2022-09-07T15:23:57.470Z,0.90
2022-09-07T15:27:02.811Z,1.00
2022-09-07T15:30:05.515Z,1.02
2022-09-07T15:33:07.526Z,1.17
2022-09-07T15:36:15.038Z,1.10
2022-09-07T15:39:22.947Z,0.98
2022-09-07T15:45:48.303Z,1.20
2022-09-07T15:48:53.246Z,0.77
2022-09-07T15:52:10.444Z,0.90
2022-09-07T15:55:12.582Z,0.77
2022-09-07T15:58:14.457Z,0.98
2022-09-07T16:04:38.767Z,0.70
2022-09-07T16:11:23.845Z,1.13
2022-09-07T16:14:26.138Z,0.90
2022-09-07T16:17:35.792Z,1.00
2022-09-07T16:20:39.552Z,0.90
2022-09-07T16:23:44.291Z,0.90
2022-09-07T16:26:46.164Z,1.02
2022-09-07T16:29:48.358Z,0.73
2022-09-07T16:32:50.298Z,1.08
2022-09-07T16:36:00.018Z,1.10
2022-09-07T16:39:02.189Z,1.20
2022-09-07T16:42:04.454Z,1.10
2022-09-07T16:48:33.247Z,1.30
2022-09-07T16:51:36.310Z,1.40
2022-09-07T16:54:38.359Z,0.90
2022-09-07T17:01:02.066Z,1.40
2022-09-07T17:04:09.652Z,0.82
2022-09-07T17:07:13.044Z,1.15
2022-09-07T17:10:14.875Z,1.20
2022-09-07T17:13:16.891Z,0.93
2022-09-07T17:16:22.197Z,1.05
2022-09-07T17:19:31.668Z,1.10
2022-09-07T17:22:33.769Z,1.00
2022-09-07T17:25:35.726Z,0.80
2022-09-07T17:28:38.888Z,0.90
2022-09-07T17:35:03.333Z,1.20
2022-09-07T17:39:14.106Z,1.08
2022-09-07T17:41:29.239Z,1.40
2022-09-07T17:44:35.976Z,1.00
2022-09-07T17:47:40.068Z,1.10
2022-09-07T17:50:42.620Z,1.10
2022-09-07T17:53:45.689Z,1.23
2022-09-07T17:56:47.556Z,1.20
2022-09-07T18:03:14.407Z,1.23
2022-09-07T18:06:19.425Z,1.10
2022-09-07T18:09:21.545Z,1.25
2022-09-07T18:12:23.454Z,1.50
2022-09-07T18:15:25.412Z,1.60
2022-09-07T18:18:28.396Z,1.90
2022-09-07T18:21:33.047Z,2.58
2022-09-07T18:24:37.009Z,1.70
2022-09-07T18:27:40.421Z,1.80
2022-09-07T18:30:42.595Z,1.80
2022-09-07T18:36:46.502Z,1.70
2022-09-07T18:39:48.741Z,1.90
2022-09-07T18:42:52.573Z,1.60
2022-09-07T18:46:05.059Z,1.77
2022-09-07T18:49:07.349Z,1.60
2022-09-07T18:55:32.235Z,1.90
2022-09-07T18:58:34.671Z,2.47
2022-09-07T19:01:37.359Z,2.13
2022-09-07T19:08:02.452Z,1.92
2022-09-07T19:11:28.272Z,2.00
2022-09-07T19:14:30.080Z,1.90
2022-09-07T19:17:32.137Z,1.83
2022-09-07T19:20:35.323Z,1.67
2022-09-07T19:23:37.659Z,1.80
2022-09-07T19:26:41.965Z,1.75
2022-09-07T19:29:44.097Z,1.63
2022-09-07T19:32:46.182Z,1.50
2022-09-07T19:35:48.433Z,1.80
2022-09-07T19:38:50.664Z,1.88
2022-09-07T19:41:52.850Z,2.08
2022-09-07T19:44:54.829Z,1.80
2022-09-07T19:51:02.321Z,2.40
2022-09-07T19:54:04.432Z,2.83
2022-09-07T19:57:06.911Z,2.50
2022-09-07T20:00:09.649Z,2.25
2022-09-07T20:03:14.270Z,2.08
2022-09-07T20:06:18.137Z,1.90
2022-09-07T20:09:20.300Z,1.70
2022-09-07T20:12:22.560Z,1.85
2022-09-07T20:18:27.164Z,2.10
2022-09-07T20:21:29.062Z,1.95
2022-09-07T20:24:33.233Z,2.10
2022-09-07T20:27:35.141Z,2.15
2022-09-07T20:30:42.944Z,1.90
2022-09-07T20:33:46.653Z,2.03
2022-09-07T20:36:51.935Z,2.55
2022-09-07T20:39:54.285Z,2.10
2022-09-07T20:42:56.250Z,2.00
2022-09-07T20:49:00.527Z,2.05
2022-09-07T20:55:04.878Z,2.00
2022-09-07T20:58:06.810Z,1.80
2022-09-07T21:01:09.117Z,2.30
2022-09-07T21:04:11.230Z,2.25
2022-09-07T21:07:13.065Z,1.85
2022-09-07T21:10:14.910Z,2.20
2022-09-07T21:13:16.813Z,2.22
2022-09-07T21:16:18.702Z,1.85
2022-09-07T21:19:20.673Z,2.22
2022-09-07T21:25:25.004Z,1.95
2022-09-07T21:28:27.806Z,1.80
2022-09-07T21:31:31.257Z,2.25
2022-09-07T21:34:33.225Z,2.00
2022-09-07T21:37:35.113Z,2.42
2022-09-07T21:40:40.955Z,2.17
2022-09-07T21:43:42.974Z,2.13
2022-09-07T21:49:51.522Z,2.42
2022-09-07T21:52:53.424Z,2.22
2022-09-07T21:55:56.845Z,3.00
2022-09-07T21:59:01.005Z,2.40
2022-09-07T22:02:03.074Z,2.00
2022-09-07T22:05:05.348Z,2.05
2022-09-07T22:08:07.286Z,1.85
2022-09-07T22:11:18.093Z,2.25
2022-09-07T22:14:20.042Z,2.33
2022-09-07T22:17:21.972Z,2.40
2022-09-07T22:23:25.615Z,2.50
2022-09-07T22:26:29.725Z,2.17
2022-09-07T22:29:31.789Z,2.33
2022-09-07T22:32:33.978Z,2.13
2022-09-07T22:35:35.822Z,2.38
2022-09-07T22:38:37.916Z,3.00
2022-09-07T22:41:40.829Z,2.42
2022-09-07T22:44:42.825Z,2.00
2022-09-07T22:47:44.724Z,2.55
2022-09-07T22:50:54.954Z,2.90
2022-09-07T22:53:57.722Z,3.10
2022-09-07T22:56:59.758Z,3.03
2022-09-07T23:00:01.978Z,3.22
2022-09-07T23:03:04.065Z,2.88
2022-09-07T23:09:10.976Z,2.50
2022-09-07T23:15:19.581Z,1.90
2022-09-07T23:21:23.336Z,2.40
2022-09-07T23:24:25.278Z,2.05
2022-09-07T23:27:27.094Z,2.17
2022-09-07T23:30:29.107Z,2.15
2022-09-07T23:33:31.438Z,1.85
2022-09-07T23:36:33.884Z,2.25
2022-09-07T23:39:35.841Z,2.00
2022-09-07T23:42:37.817Z,1.75
2022-09-07T23:45:39.705Z,1.98
2022-09-07T23:48:44.266Z,1.80
2022-09-07T23:51:46.177Z,1.63
2022-09-07T23:54:48.997Z,1.70
2022-09-07T23:57:50.833Z,2.10
